sensor_id;sensor_type;location;lat;lon;timestamp;temperature;humidity
15217;DHT22;7711;46.634;14.318;2023-03-11T00:02:12;5.90;99.90
15217;DHT22;7711;46.634;14.318;2023-03-11T00:04:39;5.90;99.90
15217;DHT22;7711;46.634;14.318;2023-03-11T00:07:08;5.80;99.90
15217;DHT22;7711;46.634;14.318;2023-03-11T00:09:35;5.80;99.90
15217;DHT22;7711;46.634;14.318;2023-03-11T00:12:04;5.90;99.90
15217;DHT22;7711;46.634;14.318;2023-03-11T00:14:32;5.90;99.90
15217;DHT22;7711;46.634;14.318;2023-03-11T00:16:59;5.90;99.90
15217;DHT22;7711;46.634;14.318;2023-03-11T00:19:26;5.80;99.90
15217;DHT22;7711;46.634;14.318;2023-03-11T00:21:53;5.70;99.90
15217;DHT22;7711;46.634;14.318;2023-03-11T00:24:20;5.70;99.90
15217;DHT22;7711;46.634;14.318;2023-03-11T00:26:47;5.60;99.90
15217;DHT22;7711;46.634;14.318;2023-03-11T00:29:15;5.60;99.90
15217;DHT22;7711;46.634;14.318;2023-03-11T00:31:42;5.60;99.90
15217;DHT22;7711;46.634;14.318;2023-03-11T00:34:09;5.60;1.00
15217;DHT22;7711;46.634;14.318;2023-03-11T00:36:36;5.50;1.00
15217;DHT22;7711;46.634;14.318;2023-03-11T00:39:04;5.40;1.00
15217;DHT22;7711;46.634;14.318;2023-03-11T00:41:32;5.30;1.00
15217;DHT22;7711;46.634;14.318;2023-03-11T00:43:59;5.30;1.00
15217;DHT22;7711;46.634;14.318;2023-03-11T00:46:28;5.30;1.00
15217;DHT22;7711;46.634;14.318;2023-03-11T00:48:56;5.20;95.60
15217;DHT22;7711;46.634;14.318;2023-03-11T00:51:23;5.20;99.90
15217;DHT22;7711;46.634;14.318;2023-03-11T00:53:50;5.30;1.00
15217;DHT22;7711;46.634;14.318;2023-03-11T00:56:17;5.30;1.00
15217;DHT22;7711;46.634;14.318;2023-03-11T00:58:44;5.30;12.30
15217;DHT22;7711;46.634;14.318;2023-03-11T01:01:13;5.30;1.00
15217;DHT22;7711;46.634;14.318;2023-03-11T01:03:42;5.40;1.00
15217;DHT22;7711;46.634;14.318;2023-03-11T01:06:10;5.40;1.00
15217;DHT22;7711;46.634;14.318;2023-03-11T01:08:38;5.50;1.00
15217;DHT22;7711;46.634;14.318;2023-03-11T01:11:06;5.40;1.00
15217;DHT22;7711;46.634;14.318;2023-03-11T01:13:34;5.40;1.00
15217;DHT22;7711;46.634;14.318;2023-03-11T01:16:01;5.40;1.00
15217;DHT22;7711;46.634;14.318;2023-03-11T01:18:28;5.40;1.00
15217;DHT22;7711;46.634;14.318;2023-03-11T01:20:58;5.40;1.00
15217;DHT22;7711;46.634;14.318;2023-03-11T01:23:25;5.40;1.00
15217;DHT22;7711;46.634;14.318;2023-03-11T01:25:53;5.40;1.00
15217;DHT22;7711;46.634;14.318;2023-03-11T01:28:20;5.40;1.00
15217;DHT22;7711;46.634;14.318;2023-03-11T01:30:47;5.40;99.90
15217;DHT22;7711;46.634;14.318;2023-03-11T01:33:16;5.20;1.00
15217;DHT22;7711;46.634;14.318;2023-03-11T01:35:44;5.20;1.00
15217;DHT22;7711;46.634;14.318;2023-03-11T01:38:12;5.10;1.00
15217;DHT22;7711;46.634;14.318;2023-03-11T01:40:41;5.00;99.90
15217;DHT22;7711;46.634;14.318;2023-03-11T01:43:37;5.10;1.00
15217;DHT22;7711;46.634;14.318;2023-03-11T01:46:11;5.00;1.00
15217;DHT22;7711;46.634;14.318;2023-03-11T01:48:39;5.00;1.00
15217;DHT22;7711;46.634;14.318;2023-03-11T01:51:08;5.00;1.00
15217;DHT22;7711;46.634;14.318;2023-03-11T01:53:36;5.00;1.00
15217;DHT22;7711;46.634;14.318;2023-03-11T01:56:04;5.00;99.90
15217;DHT22;7711;46.634;14.318;2023-03-11T01:58:36;5.00;99.90
15217;DHT22;7711;46.634;14.318;2023-03-11T02:01:03;5.00;99.90
15217;DHT22;7711;46.634;14.318;2023-03-11T02:03:32;5.00;99.90
15217;DHT22;7711;46.634;14.318;2023-03-11T02:06:01;5.00;99.90
15217;DHT22;7711;46.634;14.318;2023-03-11T02:08:29;5.00;99.90
15217;DHT22;7711;46.634;14.318;2023-03-11T02:11:03;5.00;1.00
15217;DHT22;7711;46.634;14.318;2023-03-11T02:13:31;4.90;1.00
15217;DHT22;7711;46.634;14.318;2023-03-11T02:16:00;4.90;99.90
15217;DHT22;7711;46.634;14.318;2023-03-11T02:18:27;4.90;1.00
15217;DHT22;7711;46.634;14.318;2023-03-11T02:21:02;4.90;1.00
15217;DHT22;7711;46.634;14.318;2023-03-11T02:23:35;5.00;1.00
15217;DHT22;7711;46.634;14.318;2023-03-11T02:26:10;5.10;99.90
15217;DHT22;7711;46.634;14.318;2023-03-11T02:28:41;5.00;1.00
15217;DHT22;7711;46.634;14.318;2023-03-11T02:31:09;5.00;1.00
15217;DHT22;7711;46.634;14.318;2023-03-11T02:33:37;5.10;1.00
15217;DHT22;7711;46.634;14.318;2023-03-11T02:36:05;5.10;1.00
15217;DHT22;7711;46.634;14.318;2023-03-11T02:38:32;5.00;1.00
15217;DHT22;7711;46.634;14.318;2023-03-11T02:40:59;5.00;99.90
15217;DHT22;7711;46.634;14.318;2023-03-11T02:43:30;5.00;93.90
15217;DHT22;7711;46.634;14.318;2023-03-11T02:46:00;5.10;1.00
15217;DHT22;7711;46.634;14.318;2023-03-11T02:48:28;5.10;1.00
15217;DHT22;7711;46.634;14.318;2023-03-11T02:50:56;5.20;1.00
15217;DHT22;7711;46.634;14.318;2023-03-11T02:53:26;5.10;2.20
15217;DHT22;7711;46.634;14.318;2023-03-11T02:55:53;5.10;99.90
15217;DHT22;7711;46.634;14.318;2023-03-11T02:58:20;5.20;1.00
15217;DHT22;7711;46.634;14.318;2023-03-11T03:00:47;5.20;1.00
15217;DHT22;7711;46.634;14.318;2023-03-11T03:03:16;5.20;99.90
15217;DHT22;7711;46.634;14.318;2023-03-11T03:05:43;5.20;1.00
15217;DHT22;7711;46.634;14.318;2023-03-11T03:08:10;5.10;99.90
15217;DHT22;7711;46.634;14.318;2023-03-11T03:10:37;5.10;1.00
15217;DHT22;7711;46.634;14.318;2023-03-11T03:13:04;5.10;7.40
15217;DHT22;7711;46.634;14.318;2023-03-11T03:15:31;5.00;1.00
15217;DHT22;7711;46.634;14.318;2023-03-11T03:17:58;4.90;99.90
15217;DHT22;7711;46.634;14.318;2023-03-11T03:20:27;4.90;99.90
15217;DHT22;7711;46.634;14.318;2023-03-11T03:22:54;4.90;1.00
15217;DHT22;7711;46.634;14.318;2023-03-11T03:25:21;4.90;93.70
15217;DHT22;7711;46.634;14.318;2023-03-11T03:27:48;4.80;99.90
15217;DHT22;7711;46.634;14.318;2023-03-11T03:30:15;4.90;1.00
15217;DHT22;7711;46.634;14.318;2023-03-11T03:32:42;4.90;1.00
15217;DHT22;7711;46.634;14.318;2023-03-11T03:35:09;4.80;1.00
15217;DHT22;7711;46.634;14.318;2023-03-11T03:37:38;4.80;1.00
15217;DHT22;7711;46.634;14.318;2023-03-11T03:40:06;4.60;99.90
15217;DHT22;7711;46.634;14.318;2023-03-11T03:42:34;4.60;1.00
15217;DHT22;7711;46.634;14.318;2023-03-11T03:45:01;4.50;1.00
15217;DHT22;7711;46.634;14.318;2023-03-11T03:47:29;4.40;1.00
15217;DHT22;7711;46.634;14.318;2023-03-11T03:49:57;4.30;1.00
15217;DHT22;7711;46.634;14.318;2023-03-11T03:52:24;4.30;1.00
15217;DHT22;7711;46.634;14.318;2023-03-11T03:54:52;4.40;1.00
15217;DHT22;7711;46.634;14.318;2023-03-11T03:57:19;4.40;99.90
15217;DHT22;7711;46.634;14.318;2023-03-11T03:59:46;4.40;99.90
15217;DHT22;7711;46.634;14.318;2023-03-11T04:02:13;4.40;1.00
15217;DHT22;7711;46.634;14.318;2023-03-11T04:04:40;4.50;1.00
15217;DHT22;7711;46.634;14.318;2023-03-11T04:07:07;4.70;1.00
15217;DHT22;7711;46.634;14.318;2023-03-11T04:09:37;4.70;1.00
15217;DHT22;7711;46.634;14.318;2023-03-11T04:12:06;4.50;1.00
15217;DHT22;7711;46.634;14.318;2023-03-11T04:14:33;4.40;1.00
15217;DHT22;7711;46.634;14.318;2023-03-11T04:17:00;4.30;1.00
15217;DHT22;7711;46.634;14.318;2023-03-11T04:19:27;4.20;1.00
15217;DHT22;7711;46.634;14.318;2023-03-11T04:21:54;4.20;1.00
15217;DHT22;7711;46.634;14.318;2023-03-11T04:24:21;4.30;1.00
15217;DHT22;7711;46.634;14.318;2023-03-11T04:26:47;4.30;99.90
15217;DHT22;7711;46.634;14.318;2023-03-11T04:29:16;4.30;99.90
15217;DHT22;7711;46.634;14.318;2023-03-11T04:31:43;4.20;26.70
15217;DHT22;7711;46.634;14.318;2023-03-11T04:34:10;4.20;1.00
15217;DHT22;7711;46.634;14.318;2023-03-11T04:36:37;4.20;95.40
15217;DHT22;7711;46.634;14.318;2023-03-11T04:39:04;4.30;99.90
15217;DHT22;7711;46.634;14.318;2023-03-11T04:41:31;4.30;99.90
15217;DHT22;7711;46.634;14.318;2023-03-11T04:43:58;4.30;1.00
15217;DHT22;7711;46.634;14.318;2023-03-11T04:46:26;4.30;1.00
15217;DHT22;7711;46.634;14.318;2023-03-11T04:48:53;4.30;99.90
15217;DHT22;7711;46.634;14.318;2023-03-11T04:51:20;4.30;99.90
15217;DHT22;7711;46.634;14.318;2023-03-11T04:53:47;4.30;99.90
15217;DHT22;7711;46.634;14.318;2023-03-11T04:56:14;4.30;99.90
15217;DHT22;7711;46.634;14.318;2023-03-11T04:58:41;4.30;1.00
15217;DHT22;7711;46.634;14.318;2023-03-11T05:01:08;4.20;1.00
15217;DHT22;7711;46.634;14.318;2023-03-11T05:03:36;4.30;1.00
15217;DHT22;7711;46.634;14.318;2023-03-11T05:06:04;4.20;1.00
15217;DHT22;7711;46.634;14.318;2023-03-11T05:08:31;4.20;1.00
15217;DHT22;7711;46.634;14.318;2023-03-11T05:10:58;4.20;1.00
15217;DHT22;7711;46.634;14.318;2023-03-11T05:13:25;4.20;1.00
15217;DHT22;7711;46.634;14.318;2023-03-11T05:15:52;4.20;1.00
15217;DHT22;7711;46.634;14.318;2023-03-11T05:18:19;4.20;1.00
15217;DHT22;7711;46.634;14.318;2023-03-11T05:20:47;4.20;1.00
15217;DHT22;7711;46.634;14.318;2023-03-11T05:23:14;4.20;1.00
15217;DHT22;7711;46.634;14.318;2023-03-11T05:25:41;4.20;1.00
15217;DHT22;7711;46.634;14.318;2023-03-11T05:28:08;4.20;31.10
15217;DHT22;7711;46.634;14.318;2023-03-11T05:30:36;4.10;1.00
15217;DHT22;7711;46.634;14.318;2023-03-11T05:33:03;4.10;1.00
15217;DHT22;7711;46.634;14.318;2023-03-11T05:35:30;4.10;1.00
15217;DHT22;7711;46.634;14.318;2023-03-11T05:37:58;4.10;38.00
15217;DHT22;7711;46.634;14.318;2023-03-11T05:40:25;4.00;99.90
15217;DHT22;7711;46.634;14.318;2023-03-11T05:42:53;4.00;99.90
15217;DHT22;7711;46.634;14.318;2023-03-11T05:45:20;4.00;99.90
15217;DHT22;7711;46.634;14.318;2023-03-11T05:47:46;4.00;1.00
15217;DHT22;7711;46.634;14.318;2023-03-11T05:50:13;4.00;1.00
15217;DHT22;7711;46.634;14.318;2023-03-11T05:52:40;4.00;1.00
15217;DHT22;7711;46.634;14.318;2023-03-11T05:55:09;3.90;1.00
15217;DHT22;7711;46.634;14.318;2023-03-11T05:57:37;3.90;1.00
15217;DHT22;7711;46.634;14.318;2023-03-11T06:00:05;3.80;1.00
15217;DHT22;7711;46.634;14.318;2023-03-11T06:02:36;3.80;1.00
15217;DHT22;7711;46.634;14.318;2023-03-11T06:05:04;3.90;1.00
15217;DHT22;7711;46.634;14.318;2023-03-11T06:07:33;3.80;1.00
15217;DHT22;7711;46.634;14.318;2023-03-11T06:10:01;3.70;1.00
15217;DHT22;7711;46.634;14.318;2023-03-11T06:12:29;3.80;1.00
15217;DHT22;7711;46.634;14.318;2023-03-11T06:14:56;3.90;1.00
15217;DHT22;7711;46.634;14.318;2023-03-11T06:17:23;3.80;1.00
15217;DHT22;7711;46.634;14.318;2023-03-11T06:19:50;3.90;1.00
15217;DHT22;7711;46.634;14.318;2023-03-11T06:22:17;3.90;1.00
15217;DHT22;7711;46.634;14.318;2023-03-11T06:24:44;4.00;1.00
15217;DHT22;7711;46.634;14.318;2023-03-11T06:27:11;4.00;1.00
15217;DHT22;7711;46.634;14.318;2023-03-11T06:29:39;4.10;1.00
15217;DHT22;7711;46.634;14.318;2023-03-11T06:32:06;4.10;1.00
15217;DHT22;7711;46.634;14.318;2023-03-11T06:34:33;4.10;1.00
15217;DHT22;7711;46.634;14.318;2023-03-11T06:37:02;4.20;1.00
15217;DHT22;7711;46.634;14.318;2023-03-11T06:39:29;4.20;1.00
15217;DHT22;7711;46.634;14.318;2023-03-11T06:41:56;4.30;99.90
15217;DHT22;7711;46.634;14.318;2023-03-11T06:44:23;4.40;99.90
15217;DHT22;7711;46.634;14.318;2023-03-11T06:46:51;4.40;99.90
15217;DHT22;7711;46.634;14.318;2023-03-11T06:49:18;4.40;42.70
15217;DHT22;7711;46.634;14.318;2023-03-11T06:51:45;4.50;97.90
15217;DHT22;7711;46.634;14.318;2023-03-11T06:54:12;4.60;1.00
15217;DHT22;7711;46.634;14.318;2023-03-11T06:56:39;4.70;1.00
15217;DHT22;7711;46.634;14.318;2023-03-11T06:59:06;4.70;99.90
15217;DHT22;7711;46.634;14.318;2023-03-11T07:01:33;4.70;66.50
15217;DHT22;7711;46.634;14.318;2023-03-11T07:04:01;4.80;1.00
15217;DHT22;7711;46.634;14.318;2023-03-11T07:06:28;4.90;1.00
15217;DHT22;7711;46.634;14.318;2023-03-11T07:08:55;5.10;99.90
15217;DHT22;7711;46.634;14.318;2023-03-11T07:11:24;5.10;1.00
15217;DHT22;7711;46.634;14.318;2023-03-11T07:13:52;5.30;99.90
15217;DHT22;7711;46.634;14.318;2023-03-11T07:16:21;5.50;1.00
15217;DHT22;7711;46.634;14.318;2023-03-11T07:18:49;5.60;1.00
15217;DHT22;7711;46.634;14.318;2023-03-11T07:21:20;5.70;1.00
15217;DHT22;7711;46.634;14.318;2023-03-11T07:23:50;6.00;1.00
15217;DHT22;7711;46.634;14.318;2023-03-11T07:26:17;6.20;99.90
15217;DHT22;7711;46.634;14.318;2023-03-11T07:28:44;6.20;1.00
15217;DHT22;7711;46.634;14.318;2023-03-11T07:31:16;6.50;1.00
15217;DHT22;7711;46.634;14.318;2023-03-11T07:33:43;6.80;1.00
15217;DHT22;7711;46.634;14.318;2023-03-11T07:36:12;7.10;1.00
15217;DHT22;7711;46.634;14.318;2023-03-11T07:38:41;6.80;99.90
15217;DHT22;7711;46.634;14.318;2023-03-11T07:41:09;6.70;1.00
15217;DHT22;7711;46.634;14.318;2023-03-11T07:43:37;6.30;1.00
15217;DHT22;7711;46.634;14.318;2023-03-11T07:46:06;6.20;1.00
15217;DHT22;7711;46.634;14.318;2023-03-11T07:48:34;6.30;1.00
15217;DHT22;7711;46.634;14.318;2023-03-11T07:51:03;6.40;1.00
15217;DHT22;7711;46.634;14.318;2023-03-11T07:53:30;6.40;1.00
15217;DHT22;7711;46.634;14.318;2023-03-11T07:56:00;6.40;1.00
15217;DHT22;7711;46.634;14.318;2023-03-11T07:58:28;6.50;1.00
15217;DHT22;7711;46.634;14.318;2023-03-11T08:00:55;6.40;1.00
15217;DHT22;7711;46.634;14.318;2023-03-11T08:03:22;6.40;1.00
15217;DHT22;7711;46.634;14.318;2023-03-11T08:05:50;6.50;99.90
15217;DHT22;7711;46.634;14.318;2023-03-11T08:08:18;6.60;99.90
15217;DHT22;7711;46.634;14.318;2023-03-11T08:10:45;6.40;99.90
15217;DHT22;7711;46.634;14.318;2023-03-11T08:13:13;6.30;99.90
15217;DHT22;7711;46.634;14.318;2023-03-11T08:15:40;6.60;99.90
15217;DHT22;7711;46.634;14.318;2023-03-11T08:18:07;6.70;99.90
15217;DHT22;7711;46.634;14.318;2023-03-11T08:20:36;6.80;99.90
15217;DHT22;7711;46.634;14.318;2023-03-11T08:23:03;6.70;99.90
15217;DHT22;7711;46.634;14.318;2023-03-11T08:25:30;6.80;99.90
15217;DHT22;7711;46.634;14.318;2023-03-11T08:27:57;7.00;99.90
15217;DHT22;7711;46.634;14.318;2023-03-11T08:30:26;7.00;99.90
15217;DHT22;7711;46.634;14.318;2023-03-11T08:32:53;6.60;99.90
15217;DHT22;7711;46.634;14.318;2023-03-11T08:35:20;6.70;99.90
15217;DHT22;7711;46.634;14.318;2023-03-11T08:37:47;6.80;99.90
15217;DHT22;7711;46.634;14.318;2023-03-11T08:40:14;7.00;99.90
15217;DHT22;7711;46.634;14.318;2023-03-11T08:42:41;7.20;99.90
15217;DHT22;7711;46.634;14.318;2023-03-11T08:45:09;7.50;99.90
15217;DHT22;7711;46.634;14.318;2023-03-11T08:47:38;7.30;99.90
15217;DHT22;7711;46.634;14.318;2023-03-11T08:50:08;7.30;99.90
15217;DHT22;7711;46.634;14.318;2023-03-11T08:52:37;7.40;99.90
15217;DHT22;7711;46.634;14.318;2023-03-11T08:55:05;7.40;99.90
15217;DHT22;7711;46.634;14.318;2023-03-11T08:57:33;7.30;99.90
15217;DHT22;7711;46.634;14.318;2023-03-11T09:00:00;7.40;99.90
15217;DHT22;7711;46.634;14.318;2023-03-11T09:02:27;7.50;99.90
15217;DHT22;7711;46.634;14.318;2023-03-11T09:04:55;7.70;99.90
15217;DHT22;7711;46.634;14.318;2023-03-11T09:07:22;7.50;99.90
15217;DHT22;7711;46.634;14.318;2023-03-11T09:09:49;7.50;99.90
15217;DHT22;7711;46.634;14.318;2023-03-11T09:12:16;7.80;99.90
15217;DHT22;7711;46.634;14.318;2023-03-11T09:14:44;7.60;99.90
15217;DHT22;7711;46.634;14.318;2023-03-11T09:17:11;7.60;99.90
15217;DHT22;7711;46.634;14.318;2023-03-11T09:19:39;7.70;99.90
15217;DHT22;7711;46.634;14.318;2023-03-11T09:22:07;7.90;99.90
15217;DHT22;7711;46.634;14.318;2023-03-11T09:24:34;7.90;99.90
15217;DHT22;7711;46.634;14.318;2023-03-11T09:27:02;8.20;99.90
15217;DHT22;7711;46.634;14.318;2023-03-11T09:29:29;8.20;99.90
15217;DHT22;7711;46.634;14.318;2023-03-11T09:31:56;8.20;99.90
15217;DHT22;7711;46.634;14.318;2023-03-11T09:34:23;8.40;99.90
15217;DHT22;7711;46.634;14.318;2023-03-11T09:36:50;8.40;99.90
15217;DHT22;7711;46.634;14.318;2023-03-11T09:39:19;8.70;99.90
15217;DHT22;7711;46.634;14.318;2023-03-11T09:41:51;8.60;99.90
15217;DHT22;7711;46.634;14.318;2023-03-11T09:44:23;8.90;99.90
15217;DHT22;7711;46.634;14.318;2023-03-11T09:50:08;9.60;99.90
15217;DHT22;7711;46.634;14.318;2023-03-11T09:52:43;9.90;99.90
15217;DHT22;7711;46.634;14.318;2023-03-11T09:55:25;10.00;99.90
15217;DHT22;7711;46.634;14.318;2023-03-11T09:57:57;10.00;99.90
15217;DHT22;7711;46.634;14.318;2023-03-11T10:00:25;10.20;99.90
15217;DHT22;7711;46.634;14.318;2023-03-11T10:02:52;9.90;99.90
15217;DHT22;7711;46.634;14.318;2023-03-11T10:05:22;9.80;99.90
15217;DHT22;7711;46.634;14.318;2023-03-11T10:07:54;9.80;99.90
15217;DHT22;7711;46.634;14.318;2023-03-11T10:10:26;9.80;99.90
15217;DHT22;7711;46.634;14.318;2023-03-11T10:13:02;9.80;99.90
15217;DHT22;7711;46.634;14.318;2023-03-11T10:15:41;9.80;99.90
15217;DHT22;7711;46.634;14.318;2023-03-11T10:18:28;10.10;99.90
15217;DHT22;7711;46.634;14.318;2023-03-11T10:20:59;10.30;99.90
15217;DHT22;7711;46.634;14.318;2023-03-11T10:23:36;10.40;99.90
15217;DHT22;7711;46.634;14.318;2023-03-11T10:26:14;10.70;99.90
15217;DHT22;7711;46.634;14.318;2023-03-11T10:28:45;10.50;99.90
15217;DHT22;7711;46.634;14.318;2023-03-11T10:31:19;10.20;99.90
15217;DHT22;7711;46.634;14.318;2023-03-11T10:33:50;10.20;99.90
15217;DHT22;7711;46.634;14.318;2023-03-11T10:36:22;10.50;99.90
15217;DHT22;7711;46.634;14.318;2023-03-11T10:38:52;10.80;99.90
15217;DHT22;7711;46.634;14.318;2023-03-11T10:41:27;11.00;99.90
15217;DHT22;7711;46.634;14.318;2023-03-11T10:44:00;11.40;99.90
15217;DHT22;7711;46.634;14.318;2023-03-11T10:46:29;11.20;99.90
15217;DHT22;7711;46.634;14.318;2023-03-11T10:48:56;11.40;99.90
15217;DHT22;7711;46.634;14.318;2023-03-11T10:51:24;11.90;99.90
15217;DHT22;7711;46.634;14.318;2023-03-11T10:53:54;11.80;99.90
15217;DHT22;7711;46.634;14.318;2023-03-11T10:56:28;11.80;99.90
15217;DHT22;7711;46.634;14.318;2023-03-11T10:58:56;12.30;99.90
15217;DHT22;7711;46.634;14.318;2023-03-11T11:01:24;12.40;99.90
15217;DHT22;7711;46.634;14.318;2023-03-11T11:03:55;12.40;99.90
15217;DHT22;7711;46.634;14.318;2023-03-11T11:06:26;12.70;99.90
15217;DHT22;7711;46.634;14.318;2023-03-11T11:09:15;13.00;99.90
15217;DHT22;7711;46.634;14.318;2023-03-11T11:12:00;13.30;99.90
15217;DHT22;7711;46.634;14.318;2023-03-11T11:14:47;13.50;99.90
15217;DHT22;7711;46.634;14.318;2023-03-11T11:17:17;13.50;99.90
15217;DHT22;7711;46.634;14.318;2023-03-11T11:19:45;13.70;99.90
15217;DHT22;7711;46.634;14.318;2023-03-11T11:22:16;14.00;99.90
15217;DHT22;7711;46.634;14.318;2023-03-11T11:24:44;13.30;99.90
15217;DHT22;7711;46.634;14.318;2023-03-11T11:27:18;13.20;99.90
15217;DHT22;7711;46.634;14.318;2023-03-11T11:29:46;13.20;99.90
15217;DHT22;7711;46.634;14.318;2023-03-11T11:32:20;13.50;99.90
15217;DHT22;7711;46.634;14.318;2023-03-11T11:34:56;14.00;99.90
15217;DHT22;7711;46.634;14.318;2023-03-11T11:37:25;14.40;99.90
15217;DHT22;7711;46.634;14.318;2023-03-11T11:39:58;14.10;99.90
15217;DHT22;7711;46.634;14.318;2023-03-11T11:42:29;14.20;99.90
15217;DHT22;7711;46.634;14.318;2023-03-11T11:45:01;14.20;99.90
15217;DHT22;7711;46.634;14.318;2023-03-11T11:47:32;14.50;99.90
15217;DHT22;7711;46.634;14.318;2023-03-11T11:50:02;14.60;99.90
15217;DHT22;7711;46.634;14.318;2023-03-11T11:52:32;14.70;99.90
15217;DHT22;7711;46.634;14.318;2023-03-11T11:55:03;14.60;99.90
15217;DHT22;7711;46.634;14.318;2023-03-11T11:57:33;14.70;99.90
15217;DHT22;7711;46.634;14.318;2023-03-11T12:00:01;14.70;99.90
15217;DHT22;7711;46.634;14.318;2023-03-11T12:02:44;14.80;99.90
15217;DHT22;7711;46.634;14.318;2023-03-11T12:05:16;14.60;99.90
15217;DHT22;7711;46.634;14.318;2023-03-11T12:07:59;14.40;99.90
15217;DHT22;7711;46.634;14.318;2023-03-11T12:10:30;14.40;99.90
15217;DHT22;7711;46.634;14.318;2023-03-11T12:16:12;13.60;99.90
15217;DHT22;7711;46.634;14.318;2023-03-11T12:18:45;14.10;99.90
15217;DHT22;7711;46.634;14.318;2023-03-11T12:21:26;14.10;99.90
15217;DHT22;7711;46.634;14.318;2023-03-11T12:24:07;14.10;99.90
15217;DHT22;7711;46.634;14.318;2023-03-11T12:26:40;14.40;99.90
15217;DHT22;7711;46.634;14.318;2023-03-11T12:29:12;14.60;99.90
15217;DHT22;7711;46.634;14.318;2023-03-11T12:31:43;14.20;99.90
15217;DHT22;7711;46.634;14.318;2023-03-11T12:34:12;14.10;99.90
15217;DHT22;7711;46.634;14.318;2023-03-11T12:36:43;14.00;99.90
15217;DHT22;7711;46.634;14.318;2023-03-11T12:39:20;13.80;99.90
15217;DHT22;7711;46.634;14.318;2023-03-11T12:42:18;13.70;99.90
15217;DHT22;7711;46.634;14.318;2023-03-11T12:44:47;14.30;99.90
15217;DHT22;7711;46.634;14.318;2023-03-11T12:47:25;14.10;99.90
15217;DHT22;7711;46.634;14.318;2023-03-11T12:49:54;13.90;99.90
15217;DHT22;7711;46.634;14.318;2023-03-11T12:52:23;13.50;99.90
15217;DHT22;7711;46.634;14.318;2023-03-11T13:01:02;12.80;99.90
15217;DHT22;7711;46.634;14.318;2023-03-11T13:03:50;12.80;99.90
15217;DHT22;7711;46.634;14.318;2023-03-11T13:06:35;13.30;99.90
15217;DHT22;7711;46.634;14.318;2023-03-11T13:09:04;12.90;99.90
15217;DHT22;7711;46.634;14.318;2023-03-11T13:11:42;12.60;99.90
15217;DHT22;7711;46.634;14.318;2023-03-11T13:14:29;12.30;99.90
15217;DHT22;7711;46.634;14.318;2023-03-11T13:17:21;12.20;99.90
15217;DHT22;7711;46.634;14.318;2023-03-11T13:19:53;12.40;99.90
15217;DHT22;7711;46.634;14.318;2023-03-11T13:25:41;13.10;99.90
15217;DHT22;7711;46.634;14.318;2023-03-11T13:28:30;13.70;99.90
15217;DHT22;7711;46.634;14.318;2023-03-11T13:31:26;14.30;99.90
15217;DHT22;7711;46.634;14.318;2023-03-11T13:33:56;16.80;99.90
15217;DHT22;7711;46.634;14.318;2023-03-11T13:39:35;18.50;96.90
15217;DHT22;7711;46.634;14.318;2023-03-11T13:42:07;19.40;91.80
15217;DHT22;7711;46.634;14.318;2023-03-11T13:44:40;19.50;89.00
15217;DHT22;7711;46.634;14.318;2023-03-11T13:47:12;20.50;83.20
15217;DHT22;7711;46.634;14.318;2023-03-11T13:49:43;20.90;83.70
15217;DHT22;7711;46.634;14.318;2023-03-11T13:52:17;20.60;78.30
15217;DHT22;7711;46.634;14.318;2023-03-11T13:54:54;20.90;76.00
15217;DHT22;7711;46.634;14.318;2023-03-11T13:57:28;21.00;73.00
15217;DHT22;7711;46.634;14.318;2023-03-11T13:59:57;19.90;65.10
15217;DHT22;7711;46.634;14.318;2023-03-11T14:02:30;20.30;72.10
15217;DHT22;7711;46.634;14.318;2023-03-11T14:05:02;19.10;69.40
15217;DHT22;7711;46.634;14.318;2023-03-11T14:07:32;19.70;71.50
15217;DHT22;7711;46.634;14.318;2023-03-11T14:10:21;19.90;65.10
15217;DHT22;7711;46.634;14.318;2023-03-11T14:12:48;19.90;68.30
15217;DHT22;7711;46.634;14.318;2023-03-11T14:15:19;19.40;62.40
15217;DHT22;7711;46.634;14.318;2023-03-11T14:17:49;18.20;63.00
15217;DHT22;7711;46.634;14.318;2023-03-11T14:20:18;18.60;64.20
15217;DHT22;7711;46.634;14.318;2023-03-11T14:22:50;18.20;66.10
15217;DHT22;7711;46.634;14.318;2023-03-11T14:25:19;17.00;62.30
15217;DHT22;7711;46.634;14.318;2023-03-11T14:27:52;18.30;66.90
15217;DHT22;7711;46.634;14.318;2023-03-11T14:30:22;18.30;66.00
15217;DHT22;7711;46.634;14.318;2023-03-11T14:32:58;18.60;65.20
15217;DHT22;7711;46.634;14.318;2023-03-11T14:35:26;19.40;61.20
15217;DHT22;7711;46.634;14.318;2023-03-11T14:37:55;19.50;58.90
15217;DHT22;7711;46.634;14.318;2023-03-11T14:40:25;19.70;58.70
15217;DHT22;7711;46.634;14.318;2023-03-11T14:42:55;19.70;59.30
15217;DHT22;7711;46.634;14.318;2023-03-11T14:45:26;19.40;55.40
15217;DHT22;7711;46.634;14.318;2023-03-11T14:47:57;19.20;56.60
15217;DHT22;7711;46.634;14.318;2023-03-11T14:50:27;19.40;58.80
15217;DHT22;7711;46.634;14.318;2023-03-11T14:53:01;18.40;56.70
15217;DHT22;7711;46.634;14.318;2023-03-11T14:55:31;19.00;60.00
15217;DHT22;7711;46.634;14.318;2023-03-11T14:58:02;18.40;56.20
15217;DHT22;7711;46.634;14.318;2023-03-11T15:00:34;18.70;56.80
15217;DHT22;7711;46.634;14.318;2023-03-11T15:03:10;19.00;57.00
15217;DHT22;7711;46.634;14.318;2023-03-11T15:05:46;18.80;55.20
15217;DHT22;7711;46.634;14.318;2023-03-11T15:08:18;19.10;55.40
15217;DHT22;7711;46.634;14.318;2023-03-11T15:13:49;18.60;53.90
15217;DHT22;7711;46.634;14.318;2023-03-11T15:16:28;18.60;53.00
15217;DHT22;7711;46.634;14.318;2023-03-11T15:18:57;18.30;51.80
15217;DHT22;7711;46.634;14.318;2023-03-11T15:21:25;18.30;52.10
15217;DHT22;7711;46.634;14.318;2023-03-11T15:23:58;18.20;50.50
15217;DHT22;7711;46.634;14.318;2023-03-11T15:26:27;18.50;51.90
15217;DHT22;7711;46.634;14.318;2023-03-11T15:28:57;18.50;50.40
15217;DHT22;7711;46.634;14.318;2023-03-11T15:31:31;16.10;49.70
15217;DHT22;7711;46.634;14.318;2023-03-11T15:34:23;15.70;52.90
15217;DHT22;7711;46.634;14.318;2023-03-11T15:37:16;16.10;54.90
15217;DHT22;7711;46.634;14.318;2023-03-11T15:39:48;16.20;53.90
15217;DHT22;7711;46.634;14.318;2023-03-11T15:42:21;15.70;52.40
15217;DHT22;7711;46.634;14.318;2023-03-11T15:45:03;15.20;52.80
15217;DHT22;7711;46.634;14.318;2023-03-11T15:47:30;14.00;54.80
15217;DHT22;7711;46.634;14.318;2023-03-11T15:50:02;13.90;56.20
15217;DHT22;7711;46.634;14.318;2023-03-11T15:52:35;13.70;55.70
15217;DHT22;7711;46.634;14.318;2023-03-11T15:55:07;13.50;56.00
15217;DHT22;7711;46.634;14.318;2023-03-11T15:57:36;13.50;57.90
15217;DHT22;7711;46.634;14.318;2023-03-11T16:00:07;12.90;57.30
15217;DHT22;7711;46.634;14.318;2023-03-11T16:02:40;12.90;57.80
15217;DHT22;7711;46.634;14.318;2023-03-11T16:05:12;12.70;56.80
15217;DHT22;7711;46.634;14.318;2023-03-11T16:07:40;12.70;58.10
15217;DHT22;7711;46.634;14.318;2023-03-11T16:10:10;12.60;59.00
15217;DHT22;7711;46.634;14.318;2023-03-11T16:12:38;12.20;57.80
15217;DHT22;7711;46.634;14.318;2023-03-11T16:15:18;12.00;57.90
15217;DHT22;7711;46.634;14.318;2023-03-11T16:17:45;11.70;59.60
15217;DHT22;7711;46.634;14.318;2023-03-11T16:20:14;11.50;59.80
15217;DHT22;7711;46.634;14.318;2023-03-11T16:22:41;11.40;58.30
15217;DHT22;7711;46.634;14.318;2023-03-11T16:25:17;11.30;60.50